createdAt,value
2019-06-07T00:00:51.062Z,1009.32
2019-06-07T00:01:51.046Z,1009.34
2019-06-07T00:02:51.047Z,1009.31
2019-06-07T00:03:51.042Z,1009.30
2019-06-07T00:04:51.014Z,1009.27
2019-06-07T00:05:51.006Z,1009.24
2019-06-07T00:06:50.994Z,1009.24
2019-06-07T00:07:50.992Z,1009.23
2019-06-07T00:08:50.973Z,1009.20
2019-06-07T00:09:50.965Z,1009.19
2019-06-07T00:10:50.949Z,1009.11
2019-06-07T00:11:50.939Z,1009.12
2019-06-07T00:12:50.938Z,1009.08
2019-06-07T00:13:50.919Z,1009.08
2019-06-07T00:14:50.908Z,1009.09
2019-06-07T00:15:50.894Z,1009.08
2019-06-07T00:16:50.901Z,1009.11
2019-06-07T00:17:50.915Z,1009.11
2019-06-07T00:18:50.862Z,1009.10
2019-06-07T00:19:50.866Z,1009.12
2019-06-07T00:20:50.842Z,1009.14
2019-06-07T00:22:15.483Z,1009.09
2019-06-07T00:22:51.827Z,1009.09
2019-06-07T00:23:50.810Z,1009.10
2019-06-07T00:24:50.801Z,1009.11
2019-06-07T00:25:50.798Z,1009.11
2019-06-07T00:26:58.474Z,1009.08
2019-06-07T00:27:51.801Z,1009.09
2019-06-07T00:28:50.753Z,1009.10
2019-06-07T00:29:50.765Z,1009.11
2019-06-07T00:30:52.397Z,1009.03
2019-06-07T00:31:50.720Z,1009.03
2019-06-07T00:32:51.013Z,1009.04
2019-06-07T00:33:50.706Z,1009.03
2019-06-07T00:34:50.691Z,1009.00
2019-06-07T00:35:50.676Z,1008.98
2019-06-07T00:36:50.665Z,1008.98
2019-06-07T00:37:50.655Z,1009.01
2019-06-07T00:38:50.651Z,1009.04
2019-06-07T00:40:12.688Z,1009.10
2019-06-07T00:40:51.621Z,1009.14
2019-06-07T00:41:50.610Z,1009.12
2019-06-07T00:42:50.608Z,1009.11
2019-06-07T00:43:50.597Z,1009.12
2019-06-07T00:44:50.579Z,1009.10
2019-06-07T00:45:50.565Z,1009.09
2019-06-07T00:46:50.564Z,1009.09
2019-06-07T00:47:50.550Z,1009.10
2019-06-07T00:48:50.543Z,1009.04
2019-06-07T00:49:50.523Z,1009.09
2019-06-07T00:50:50.523Z,1009.05
2019-06-07T00:51:51.916Z,1009.10
2019-06-07T00:53:51.496Z,1009.05
2019-06-07T00:54:50.467Z,1009.04
2019-06-07T00:55:50.456Z,1009.02
2019-06-07T00:56:50.447Z,1009.04
2019-06-07T00:57:50.435Z,1009.07
2019-06-07T00:59:10.399Z,1009.01
2019-06-07T00:59:51.412Z,1009.00
2019-06-07T01:00:50.404Z,1009.01
2019-06-07T01:01:50.433Z,1009.00
2019-06-07T01:02:50.380Z,1009.01
2019-06-07T01:03:50.395Z,1008.99
2019-06-07T01:04:50.360Z,1009.00
2019-06-07T01:05:50.346Z,1009.04
2019-06-07T01:06:50.337Z,1009.05
2019-06-07T01:07:50.330Z,1009.04
2019-06-07T01:08:50.322Z,1009.03
2019-06-07T01:09:50.309Z,1009.04
2019-06-07T01:10:54.314Z,1009.06
2019-06-07T01:11:50.305Z,1009.09
2019-06-07T01:12:50.273Z,1009.08
2019-06-07T01:13:50.270Z,1009.08
2019-06-07T01:14:50.251Z,1009.06
2019-06-07T01:15:50.238Z,1009.07
2019-06-07T01:16:57.590Z,1009.07
2019-06-07T01:18:32.951Z,1009.11
2019-06-07T01:18:51.510Z,1009.07
2019-06-07T01:19:50.195Z,1009.13
2019-06-07T01:20:50.184Z,1009.16
2019-06-07T01:21:50.172Z,1009.13
2019-06-07T01:22:50.163Z,1009.14
2019-06-07T01:24:11.958Z,1009.09
2019-06-07T01:24:51.160Z,1009.07
2019-06-07T01:25:50.130Z,1009.07
2019-06-07T01:26:50.118Z,1009.06
2019-06-07T01:27:50.111Z,1009.08
2019-06-07T01:28:50.112Z,1009.14
2019-06-07T01:29:50.087Z,1009.13
2019-06-07T01:30:50.098Z,1009.17
2019-06-07T01:31:50.063Z,1009.25
2019-06-07T01:32:50.055Z,1009.24
2019-06-07T01:33:51.351Z,1009.25
2019-06-07T01:34:50.032Z,1009.24
2019-06-07T01:35:50.019Z,1009.23
2019-06-07T01:36:50.009Z,1009.21
2019-06-07T01:37:50.017Z,1009.18
2019-06-07T01:38:49.991Z,1009.25
2019-06-07T01:39:49.988Z,1009.28
2019-06-07T01:40:49.968Z,1009.23
2019-06-07T01:41:49.956Z,1009.19
2019-06-07T01:42:49.953Z,1009.17
2019-06-07T01:43:49.934Z,1009.14
2019-06-07T01:44:49.936Z,1009.09
2019-06-07T01:45:49.914Z,1009.09
2019-06-07T01:46:49.901Z,1009.08
2019-06-07T01:47:49.897Z,1009.06
2019-06-07T01:48:50.075Z,1009.04
2019-06-07T01:49:49.878Z,1009.10
2019-06-07T01:50:49.860Z,1009.09
2019-06-07T01:51:49.855Z,1009.23
2019-06-07T01:52:49.837Z,1009.30
2019-06-07T01:53:49.826Z,1009.33
2019-06-07T01:54:58.158Z,1009.35
2019-06-07T01:55:50.870Z,1009.32
2019-06-07T01:56:49.797Z,1009.33
2019-06-07T01:57:49.784Z,1009.36
2019-06-07T01:58:49.772Z,1009.37
2019-06-07T01:59:49.769Z,1009.37
2019-06-07T02:00:49.751Z,1009.36
2019-06-07T02:01:49.747Z,1009.35
2019-06-07T02:02:49.731Z,1009.35
2019-06-07T02:03:49.719Z,1009.32
2019-06-07T02:04:49.716Z,1009.32
2019-06-07T02:05:49.697Z,1009.31
2019-06-07T02:06:49.686Z,1009.28
2019-06-07T02:07:49.676Z,1009.22
2019-06-07T02:08:49.665Z,1009.20
2019-06-07T02:09:49.662Z,1009.21
2019-06-07T02:10:49.642Z,1009.19
2019-06-07T02:11:49.632Z,1009.20
2019-06-07T02:12:49.621Z,1009.23
2019-06-07T02:13:49.610Z,1009.29
2019-06-07T02:14:49.608Z,1009.31
2019-06-07T02:15:49.588Z,1009.29
2019-06-07T02:16:49.578Z,1009.34
2019-06-07T02:17:49.569Z,1009.29
2019-06-07T02:19:01.560Z,1009.27
2019-06-07T02:19:50.558Z,1009.30
2019-06-07T02:20:49.539Z,1009.27
2019-06-07T02:21:49.523Z,1009.31
2019-06-07T02:22:49.513Z,1009.33
2019-06-07T02:23:49.503Z,1009.37
2019-06-07T02:25:34.016Z,1009.40
2019-06-07T02:25:50.850Z,1009.37
2019-06-07T02:26:49.471Z,1009.37
2019-06-07T02:27:49.458Z,1009.37
2019-06-07T02:28:49.448Z,1009.38
2019-06-07T02:29:49.447Z,1009.38
2019-06-07T02:30:59.664Z,1009.41
2019-06-07T02:31:50.416Z,1009.41
2019-06-07T02:32:49.407Z,1009.40
2019-06-07T02:33:49.393Z,1009.40
2019-06-07T02:34:49.392Z,1009.43
2019-06-07T02:35:49.432Z,1009.47
2019-06-07T02:36:49.361Z,1009.48
2019-06-07T02:37:49.354Z,1009.47
2019-06-07T02:38:49.340Z,1009.48
2019-06-07T02:39:49.337Z,1009.43
2019-06-07T02:40:49.320Z,1009.38
2019-06-07T02:41:49.306Z,1009.40
2019-06-07T02:42:49.297Z,1009.28
2019-06-07T02:43:49.290Z,1009.28
2019-06-07T02:44:49.315Z,1009.30
2019-06-07T02:45:49.265Z,1009.30
2019-06-07T02:46:50.010Z,1009.30
2019-06-07T02:47:49.245Z,1009.35
2019-06-07T02:48:49.230Z,1009.37
2019-06-07T02:49:49.223Z,1009.38
2019-06-07T02:50:49.217Z,1009.34
2019-06-07T02:51:49.197Z,1009.37
2019-06-07T02:52:49.251Z,1009.32
2019-06-07T02:53:49.176Z,1009.37
2019-06-07T02:54:49.166Z,1009.34
2019-06-07T02:56:34.022Z,1009.32
2019-06-07T02:56:57.861Z,1009.30
2019-06-07T02:57:50.133Z,1009.32
2019-06-07T02:58:49.122Z,1009.33
2019-06-07T03:00:06.747Z,1009.31
2019-06-07T03:01:08.868Z,1009.32
2019-06-07T03:01:50.089Z,1009.37
2019-06-07T03:02:49.076Z,1009.35
2019-06-07T03:03:49.067Z,1009.36
2019-06-07T03:04:49.058Z,1009.33
2019-06-07T03:05:49.051Z,1009.34
2019-06-07T03:06:49.040Z,1009.34
2019-06-07T03:07:49.024Z,1009.34
2019-06-07T03:08:49.011Z,1009.34
2019-06-07T03:09:49.000Z,1009.35
2019-06-07T03:10:49.003Z,1009.36
2019-06-07T03:11:48.979Z,1009.36
2019-06-07T03:12:48.969Z,1009.40
2019-06-07T03:13:48.963Z,1009.40
2019-06-07T03:14:48.945Z,1009.46
2019-06-07T03:15:50.353Z,1009.47
2019-06-07T03:16:48.923Z,1009.47
2019-06-07T03:17:48.915Z,1009.49
2019-06-07T03:18:48.901Z,1009.49
2019-06-07T03:19:48.890Z,1009.49
2019-06-07T03:21:04.680Z,1009.51
2019-06-07T03:21:49.873Z,1009.57
2019-06-07T03:22:48.861Z,1009.63
2019-06-07T03:23:48.857Z,1009.64
2019-06-07T03:24:48.835Z,1009.71
2019-06-07T03:25:48.834Z,1009.76
2019-06-07T03:27:50.555Z,1009.76
2019-06-07T03:28:48.794Z,1009.77
2019-06-07T03:29:48.787Z,1009.81
2019-06-07T03:31:01.485Z,1009.82
2019-06-07T03:31:49.759Z,1009.81
2019-06-07T03:32:48.923Z,1009.75
2019-06-07T03:33:48.751Z,1009.79
2019-06-07T03:34:48.726Z,1009.77
2019-06-07T03:35:48.727Z,1009.76
2019-06-07T03:36:48.703Z,1009.69
2019-06-07T03:37:48.695Z,1009.74
2019-06-07T03:38:48.681Z,1009.73
2019-06-07T03:39:48.670Z,1009.74
2019-06-07T03:40:48.687Z,1009.73
2019-06-07T03:42:05.189Z,1009.70
2019-06-07T03:42:49.637Z,1009.65
2019-06-07T03:43:48.629Z,1009.69
2019-06-07T03:44:48.615Z,1009.65
2019-06-07T03:45:48.605Z,1009.64
2019-06-07T03:46:48.630Z,1009.70
2019-06-07T03:47:48.583Z,1009.75
2019-06-07T03:48:48.591Z,1009.77
2019-06-07T03:49:48.566Z,1009.81
2019-06-07T03:51:03.870Z,1009.83
2019-06-07T03:51:49.547Z,1009.85
2019-06-07T03:52:48.529Z,1009.84
2019-06-07T03:53:48.520Z,1009.91
2019-06-07T03:54:48.507Z,1009.94
2019-06-07T03:55:48.500Z,1009.95
2019-06-07T03:56:48.494Z,1009.99
2019-06-07T03:58:29.978Z,1010.02
2019-06-07T03:58:50.562Z,1010.03
2019-06-07T03:59:48.451Z,1010.04
2019-06-07T04:00:48.442Z,1010.02
2019-06-07T04:01:48.442Z,1010.00
2019-06-07T04:02:48.422Z,1010.06
2019-06-07T04:03:51.770Z,1010.07
2019-06-07T04:04:48.397Z,1010.08
2019-06-07T04:05:48.622Z,1010.09
2019-06-07T04:06:48.382Z,1010.04
2019-06-07T04:07:48.502Z,1010.03
2019-06-07T04:08:48.354Z,1010.07
2019-06-07T04:09:48.349Z,1009.99
2019-06-07T04:10:59.601Z,1010.00
2019-06-07T04:11:49.330Z,1010.04
2019-06-07T04:12:48.310Z,1010.08
2019-06-07T04:13:48.306Z,1010.08
2019-06-07T04:14:48.287Z,1010.06
2019-06-07T04:15:48.432Z,1010.05
2019-06-07T04:16:48.276Z,1009.98
2019-06-07T04:18:01.526Z,1009.99
2019-06-07T04:18:49.242Z,1009.95
2019-06-07T04:19:48.234Z,1009.98
2019-06-07T04:20:48.223Z,1010.03
2019-06-07T04:21:48.262Z,1009.98
2019-06-07T04:22:48.203Z,1010.00
2019-06-07T04:23:48.190Z,1010.05
2019-06-07T04:24:48.178Z,1010.05
2019-06-07T04:25:48.169Z,1009.99
2019-06-07T04:26:48.164Z,1010.00
2019-06-07T04:27:48.148Z,1010.02
2019-06-07T04:29:31.485Z,1010.10
2019-06-07T04:30:06.543Z,1010.12
2019-06-07T04:30:49.111Z,1010.15
2019-06-07T04:31:48.110Z,1010.24
2019-06-07T04:32:48.095Z,1010.29
2019-06-07T04:33:48.082Z,1010.22
2019-06-07T04:34:48.141Z,1010.22
2019-06-07T04:35:48.058Z,1010.23
2019-06-07T04:36:58.523Z,1010.24
2019-06-07T04:37:49.035Z,1010.26
2019-06-07T04:38:48.027Z,1010.26
2019-06-07T04:39:48.017Z,1010.16
2019-06-07T04:40:48.005Z,1010.24
2019-06-07T04:41:48.004Z,1010.21
2019-06-07T04:42:47.982Z,1010.23
2019-06-07T04:43:47.972Z,1010.30
2019-06-07T04:44:48.033Z,1010.24
2019-06-07T04:45:51.220Z,1010.25
2019-06-07T04:46:47.951Z,1010.28
2019-06-07T04:47:47.931Z,1010.28
2019-06-07T04:48:47.921Z,1010.24
2019-06-07T04:49:47.910Z,1010.24
2019-06-07T04:50:47.897Z,1010.33
2019-06-07T04:51:47.901Z,1010.36
2019-06-07T04:52:47.912Z,1010.25
2019-06-07T04:53:47.867Z,1010.37
2019-06-07T04:54:47.858Z,1010.35
2019-06-07T04:55:47.848Z,1010.26
2019-06-07T04:56:47.867Z,1010.22
2019-06-07T04:57:47.844Z,1010.19
2019-06-07T04:58:47.814Z,1010.22
2019-06-07T05:00:12.063Z,1010.26
2019-06-07T05:00:53.998Z,1010.29
2019-06-07T05:01:48.810Z,1010.25
2019-06-07T05:02:47.774Z,1010.31
2019-06-07T05:03:47.763Z,1010.20
2019-06-07T05:04:47.751Z,1010.19
2019-06-07T05:05:47.741Z,1010.20
2019-06-07T05:06:47.732Z,1010.22
2019-06-07T05:07:47.737Z,1010.20
2019-06-07T05:08:47.709Z,1010.23
2019-06-07T05:09:47.700Z,1010.28
2019-06-07T05:10:47.689Z,1010.30
2019-06-07T05:11:47.679Z,1010.32
2019-06-07T05:12:47.677Z,1010.28
2019-06-07T05:13:47.664Z,1010.23
2019-06-07T05:14:47.650Z,1010.29
2019-06-07T05:15:47.640Z,1010.36
2019-06-07T05:16:47.629Z,1010.37
2019-06-07T05:17:47.626Z,1010.35
2019-06-07T05:18:47.611Z,1010.33
2019-06-07T05:19:47.636Z,1010.38
2019-06-07T05:20:47.589Z,1010.36
2019-06-07T05:22:02.663Z,1010.48
2019-06-07T05:22:48.579Z,1010.44
2019-06-07T05:24:09.493Z,1010.46
2019-06-07T05:24:48.548Z,1010.45
2019-06-07T05:25:47.542Z,1010.43
2019-06-07T05:26:47.529Z,1010.44
2019-06-07T05:27:47.539Z,1010.45
2019-06-07T05:28:47.510Z,1010.50
2019-06-07T05:30:08.819Z,1010.48
2019-06-07T05:31:03.817Z,1010.52
2019-06-07T05:31:48.480Z,1010.51
2019-06-07T05:32:47.481Z,1010.55
2019-06-07T05:33:47.464Z,1010.52
2019-06-07T05:34:47.677Z,1010.54
2019-06-07T05:35:47.443Z,1010.51
2019-06-07T05:37:08.459Z,1010.65
2019-06-07T05:37:48.467Z,1010.55
2019-06-07T05:38:47.413Z,1010.50
2019-06-07T05:39:47.406Z,1010.54
2019-06-07T05:40:48.817Z,1010.55
2019-06-07T05:41:47.386Z,1010.56
2019-06-07T05:42:47.384Z,1010.54
2019-06-07T05:44:00.229Z,1010.54
2019-06-07T05:44:48.359Z,1010.53
2019-06-07T05:45:47.348Z,1010.52
2019-06-07T05:46:47.683Z,1010.52
2019-06-07T05:47:51.083Z,1010.49
2019-06-07T05:48:47.320Z,1010.50
2019-06-07T05:49:47.566Z,1010.48
2019-06-07T05:50:56.003Z,1010.50
2019-06-07T05:51:48.292Z,1010.55
2019-06-07T05:52:47.737Z,1010.58
2019-06-07T05:53:47.274Z,1010.53
2019-06-07T05:54:47.264Z,1010.48
2019-06-07T05:55:47.758Z,1010.50
2019-06-07T05:56:47.248Z,1010.51
2019-06-07T05:57:50.976Z,1010.54
2019-06-07T05:58:47.236Z,1010.55
2019-06-07T05:59:47.800Z,1010.55
2019-06-07T06:00:47.859Z,1010.56
2019-06-07T06:01:58.982Z,1010.61
2019-06-07T06:03:04.324Z,1010.54
2019-06-07T06:03:48.574Z,1010.54
2019-06-07T06:04:49.286Z,1010.57
2019-06-07T06:05:54.407Z,1010.56
2019-06-07T06:06:48.161Z,1010.60
2019-06-07T06:07:50.437Z,1010.55
2019-06-07T06:08:47.947Z,1010.59
2019-06-07T06:09:47.653Z,1010.59
2019-06-07T06:10:48.811Z,1010.66
2019-06-07T06:11:59.674Z,1010.66
2019-06-07T06:12:51.641Z,1010.65
2019-06-07T06:14:05.940Z,1010.69
2019-06-07T06:14:48.088Z,1010.65
2019-06-07T06:16:00.371Z,1010.67
2019-06-07T06:16:50.026Z,1010.65
2019-06-07T06:17:50.027Z,1010.70
2019-06-07T06:18:49.212Z,1010.67
2019-06-07T06:19:50.369Z,1010.63
2019-06-07T06:21:09.723Z,1010.68
2019-06-07T06:21:48.709Z,1010.65
2019-06-07T06:22:48.760Z,1010.67
2019-06-07T06:23:50.734Z,1010.66
2019-06-07T06:25:22.679Z,1010.66
2019-06-07T06:25:55.914Z,1010.61
2019-06-07T06:26:52.165Z,1010.67
2019-06-07T06:28:11.799Z,1010.70
2019-06-07T06:28:49.739Z,1010.65
2019-06-07T06:29:50.114Z,1010.64
2019-06-07T06:30:47.997Z,1010.64
2019-06-07T06:32:36.751Z,1010.67
2019-06-07T06:32:56.863Z,1010.68
2019-06-07T06:33:49.910Z,1010.69
2019-06-07T06:34:49.412Z,1010.70
2019-06-07T06:35:49.413Z,1010.62
2019-06-07T06:36:50.110Z,1010.62
2019-06-07T06:37:52.629Z,1010.67
2019-06-07T06:38:49.723Z,1010.69
2019-06-07T06:39:49.969Z,1010.70
2019-06-07T06:40:49.663Z,1010.71
2019-06-07T06:41:58.602Z,1010.61
2019-06-07T06:42:50.103Z,1010.63
2019-06-07T06:43:50.335Z,1010.68
2019-06-07T06:44:53.659Z,1010.58
2019-06-07T06:45:50.486Z,1010.65
2019-06-07T06:46:55.926Z,1010.59
2019-06-07T06:47:50.544Z,1010.57
2019-06-07T06:48:53.795Z,1010.60
2019-06-07T06:49:49.990Z,1010.59
2019-06-07T06:50:52.286Z,1010.57
2019-06-07T06:51:47.836Z,1010.63
2019-06-07T06:52:50.425Z,1010.58
2019-06-07T06:53:49.863Z,1010.63
2019-06-07T06:54:58.977Z,1010.63
2019-06-07T06:55:49.619Z,1010.59
2019-06-07T06:56:47.584Z,1010.56
2019-06-07T06:57:48.341Z,1010.56
2019-06-07T06:59:30.742Z,1010.57
2019-06-07T06:59:50.528Z,1010.53
2019-06-07T07:00:58.767Z,1010.55
2019-06-07T07:01:50.570Z,1010.60
2019-06-07T07:03:39.313Z,1010.62
2019-06-07T07:04:07.260Z,1010.56
2019-06-07T07:04:48.663Z,1010.56
2019-06-07T07:05:50.045Z,1010.53
2019-06-07T07:06:48.052Z,1010.49
2019-06-07T07:07:49.975Z,1010.49
2019-06-07T07:08:50.689Z,1010.47
2019-06-07T07:09:49.416Z,1010.45
2019-06-07T07:10:51.154Z,1010.49
2019-06-07T07:12:00.740Z,1010.43
2019-06-07T07:12:49.782Z,1010.44
2019-06-07T07:13:49.927Z,1010.45
2019-06-07T07:14:49.739Z,1010.44
2019-06-07T07:15:50.155Z,1010.43
2019-06-07T07:16:50.036Z,1010.47
2019-06-07T07:17:58.919Z,1010.41
2019-06-07T07:18:51.101Z,1010.41
2019-06-07T07:19:49.860Z,1010.39
2019-06-07T07:20:48.332Z,1010.32
2019-06-07T07:21:50.623Z,1010.38
2019-06-07T07:22:48.551Z,1010.33
2019-06-07T07:24:14.672Z,1010.33
2019-06-07T07:24:49.741Z,1010.31
2019-06-07T07:25:52.751Z,1010.35
2019-06-07T07:26:50.058Z,1010.32
2019-06-07T07:27:47.150Z,1010.34
2019-06-07T07:28:50.788Z,1010.40
2019-06-07T07:29:52.555Z,1010.33
2019-06-07T07:30:48.118Z,1010.35
2019-06-07T07:31:50.308Z,1010.33
2019-06-07T07:32:48.985Z,1010.33
2019-06-07T07:34:50.077Z,1010.34
2019-06-07T07:36:10.853Z,1010.34
2019-06-07T07:36:50.222Z,1010.33
2019-06-07T07:37:53.514Z,1010.34
2019-06-07T07:38:51.852Z,1010.37
2019-06-07T07:39:50.481Z,1010.35
2019-06-07T07:41:02.011Z,1010.39
2019-06-07T07:42:12.319Z,1010.47
2019-06-07T07:42:49.636Z,1010.40
2019-06-07T07:43:52.909Z,1010.39
2019-06-07T07:44:49.895Z,1010.38
2019-06-07T07:45:53.093Z,1010.40
2019-06-07T07:46:49.170Z,1010.37
2019-06-07T07:48:03.494Z,1010.34
2019-06-07T07:48:48.533Z,1010.37
2019-06-07T07:49:48.365Z,1010.34
2019-06-07T07:50:49.833Z,1010.32
2019-06-07T07:51:48.880Z,1010.35
2019-06-07T07:52:49.068Z,1010.27
2019-06-07T07:53:53.199Z,1010.29
2019-06-07T07:54:49.160Z,1010.28
2019-06-07T07:55:51.544Z,1010.28
2019-06-07T07:56:48.953Z,1010.27
2019-06-07T07:57:48.690Z,1010.29
2019-06-07T07:58:50.029Z,1010.32
2019-06-07T08:00:02.178Z,1010.31
2019-06-07T08:00:57.660Z,1010.32
2019-06-07T08:01:48.625Z,1010.31
2019-06-07T08:02:48.834Z,1010.27
2019-06-07T08:03:46.038Z,1010.28
2019-06-07T08:05:17.705Z,1010.27
2019-06-07T08:05:47.639Z,1010.27
2019-06-07T08:06:46.646Z,1010.25
2019-06-07T08:07:49.853Z,1010.22
2019-06-07T08:08:46.927Z,1010.29
2019-06-07T08:09:47.432Z,1010.28
2019-06-07T08:10:51.367Z,1010.28
2019-06-07T08:11:47.717Z,1010.28
2019-06-07T08:13:07.259Z,1010.25
2019-06-07T08:13:48.012Z,1010.30
2019-06-07T08:14:47.712Z,1010.27
2019-06-07T08:15:48.300Z,1010.27
2019-06-07T08:16:47.061Z,1010.27
2019-06-07T08:17:47.248Z,1010.27
2019-06-07T08:18:45.823Z,1010.19
2019-06-07T08:19:47.655Z,1010.23
2019-06-07T08:21:04.641Z,1010.29
2019-06-07T08:21:47.913Z,1010.29
2019-06-07T08:22:45.780Z,1010.32
2019-06-07T08:23:47.678Z,1010.30
2019-06-07T08:24:45.759Z,1010.32
2019-06-07T08:25:46.808Z,1010.33
2019-06-07T08:27:08.028Z,1010.39
2019-06-07T08:27:47.043Z,1010.36
2019-06-07T08:28:45.717Z,1010.35
2019-06-07T08:30:03.815Z,1010.36
2019-06-07T08:30:50.622Z,1010.32
2019-06-07T08:31:48.321Z,1010.32
2019-06-07T08:32:45.675Z,1010.34
2019-06-07T08:33:45.667Z,1010.27
2019-06-07T08:34:45.664Z,1010.32
2019-06-07T08:36:46.633Z,1010.32
2019-06-07T08:38:48.291Z,1010.35
2019-06-07T08:39:46.602Z,1010.34
2019-06-07T08:40:45.609Z,1010.35
2019-06-07T08:41:59.476Z,1010.32
2019-06-07T08:43:04.529Z,1010.33
2019-06-07T08:43:46.559Z,1010.33
2019-06-07T08:44:45.556Z,1010.32
2019-06-07T08:45:45.546Z,1010.31
2019-06-07T08:46:45.531Z,1010.31
2019-06-07T08:47:45.519Z,1010.26
2019-06-07T08:48:45.509Z,1010.25
2019-06-07T08:49:45.499Z,1010.25
2019-06-07T08:50:45.495Z,1010.22
2019-06-07T08:51:45.483Z,1010.26
2019-06-07T08:52:45.466Z,1010.25
2019-06-07T08:54:02.746Z,1010.26
2019-06-07T08:54:46.443Z,1010.26
2019-06-07T08:55:45.445Z,1010.27
2019-06-07T08:56:45.428Z,1010.23
2019-06-07T08:57:45.427Z,1010.25
2019-06-07T08:58:45.404Z,1010.23
2019-06-07T08:59:45.392Z,1010.24
2019-06-07T09:00:47.527Z,1010.23
2019-06-07T09:01:45.376Z,1010.23
2019-06-07T09:02:45.364Z,1010.22
2019-06-07T09:03:45.356Z,1010.21
2019-06-07T09:04:45.340Z,1010.24
2019-06-07T09:05:45.337Z,1010.20
2019-06-07T09:07:46.309Z,1010.20
2019-06-07T09:08:45.303Z,1010.23
2019-06-07T09:09:45.289Z,1010.22
2019-06-07T09:10:45.313Z,1010.22
2019-06-07T09:11:45.265Z,1010.23
2019-06-07T09:12:45.256Z,1010.25
2019-06-07T09:13:45.244Z,1010.20
2019-06-07T09:14:59.724Z,1010.15
2019-06-07T09:15:46.251Z,1010.14
2019-06-07T09:16:45.253Z,1010.17
2019-06-07T09:18:30.435Z,1010.14
2019-06-07T09:18:46.193Z,1010.13
2019-06-07T09:19:45.185Z,1010.07
2019-06-07T09:20:45.170Z,1010.09
2019-06-07T09:21:45.166Z,1010.09
2019-06-07T09:22:45.153Z,1010.06
2019-06-07T09:23:45.138Z,1010.05
2019-06-07T09:24:45.127Z,1010.01
2019-06-07T09:25:57.070Z,1010.03
2019-06-07T09:26:46.116Z,1010.04
2019-06-07T09:27:45.096Z,1010.04
2019-06-07T09:28:45.084Z,1009.99
2019-06-07T09:29:45.079Z,1009.99
2019-06-07T09:30:45.066Z,1009.99
2019-06-07T09:31:53.581Z,1009.93
2019-06-07T09:32:46.040Z,1009.95
2019-06-07T09:33:45.032Z,1009.97
2019-06-07T09:34:45.021Z,1009.97
2019-06-07T09:35:45.014Z,1010.00
2019-06-07T09:36:45.014Z,1009.93
2019-06-07T09:38:45.980Z,1009.96
2019-06-07T09:39:44.970Z,1009.90
2019-06-07T09:40:44.958Z,1009.93
2019-06-07T09:41:50.106Z,1009.96
2019-06-07T09:42:45.936Z,1009.96
2019-06-07T09:44:10.866Z,1009.97
2019-06-07T09:44:45.915Z,1009.97
2019-06-07T09:45:44.911Z,1009.97
2019-06-07T09:46:44.909Z,1009.94
2019-06-07T09:47:44.884Z,1009.95
2019-06-07T09:49:10.615Z,1009.98
2019-06-07T09:49:45.862Z,1009.97
2019-06-07T09:50:44.852Z,1010.00
2019-06-07T09:51:44.849Z,1009.98
2019-06-07T09:52:57.926Z,1009.98
2019-06-07T09:53:45.821Z,1010.01
2019-06-07T09:55:45.797Z,1010.00
2019-06-07T09:56:46.424Z,1009.97
2019-06-07T09:57:44.776Z,1009.95
2019-06-07T09:58:51.732Z,1009.95
2019-06-07T09:59:46.793Z,1009.94
2019-06-07T10:00:44.807Z,1009.97
2019-06-07T10:01:44.744Z,1010.01
2019-06-07T10:02:44.730Z,1009.99
2019-06-07T10:03:44.713Z,1010.03
2019-06-07T10:04:44.702Z,1009.98
2019-06-07T10:05:44.691Z,1010.02
2019-06-07T10:06:44.698Z,1010.00
2019-06-07T10:07:59.986Z,1010.08
2019-06-07T10:10:45.635Z,1010.02
2019-06-07T10:11:44.638Z,1009.99
2019-06-07T10:12:44.621Z,1009.95
2019-06-07T10:13:44.610Z,1009.96
2019-06-07T10:14:45.307Z,1010.00
2019-06-07T10:15:44.586Z,1009.99
2019-06-07T10:16:47.176Z,1009.95
2019-06-07T10:17:44.565Z,1009.99
2019-06-07T10:18:44.570Z,1009.98
2019-06-07T10:19:44.598Z,1009.93
2019-06-07T10:20:44.532Z,1009.90
2019-06-07T10:21:44.520Z,1009.90
2019-06-07T10:22:44.518Z,1009.88
2019-06-07T10:23:44.500Z,1009.85
2019-06-07T10:24:44.489Z,1009.88
2019-06-07T10:25:44.479Z,1009.89
2019-06-07T10:26:44.467Z,1009.89
2019-06-07T10:27:44.465Z,1009.88
2019-06-07T10:28:44.456Z,1009.85
2019-06-07T10:29:44.441Z,1009.85
2019-06-07T10:30:44.427Z,1009.86
2019-06-07T10:31:44.491Z,1009.80
2019-06-07T10:32:44.413Z,1009.84
2019-06-07T10:33:44.396Z,1009.85
2019-06-07T10:34:44.385Z,1009.80
2019-06-07T10:35:44.373Z,1009.85
2019-06-07T10:36:44.374Z,1009.82
2019-06-07T10:37:44.360Z,1009.84
2019-06-07T10:38:44.344Z,1009.82
2019-06-07T10:39:48.618Z,1009.82
2019-06-07T10:40:44.320Z,1009.73
2019-06-07T10:41:44.313Z,1009.66
2019-06-07T10:42:44.307Z,1009.69
2019-06-07T10:43:44.293Z,1009.69
2019-06-07T10:44:44.278Z,1009.70
2019-06-07T10:45:44.274Z,1009.66
2019-06-07T10:46:44.266Z,1009.69
2019-06-07T10:47:44.257Z,1009.73
2019-06-07T10:48:44.238Z,1009.68
2019-06-07T10:49:44.256Z,1009.71
2019-06-07T10:50:44.215Z,1009.70
2019-06-07T10:51:44.204Z,1009.70
2019-06-07T10:52:44.208Z,1009.68
2019-06-07T10:53:44.185Z,1009.70
2019-06-07T10:54:44.179Z,1009.65
2019-06-07T10:55:44.164Z,1009.61
2019-06-07T10:56:44.151Z,1009.62
2019-06-07T10:57:44.149Z,1009.61
2019-06-07T10:58:44.135Z,1009.61
2019-06-07T10:59:44.124Z,1009.61
2019-06-07T11:00:44.113Z,1009.62
2019-06-07T11:01:44.100Z,1009.62
2019-06-07T11:02:44.097Z,1009.67
2019-06-07T11:03:44.078Z,1009.67
2019-06-07T11:04:44.069Z,1009.66
2019-06-07T11:05:44.056Z,1009.60
2019-06-07T11:06:44.051Z,1009.59
2019-06-07T11:07:44.045Z,1009.62
2019-06-07T11:08:44.034Z,1009.59
2019-06-07T11:09:44.049Z,1009.59
2019-06-07T11:10:44.001Z,1009.59
2019-06-07T11:11:43.991Z,1009.57
2019-06-07T11:12:43.988Z,1009.58
2019-06-07T11:13:43.984Z,1009.55
2019-06-07T11:14:43.967Z,1009.57
2019-06-07T11:15:44.006Z,1009.51
2019-06-07T11:16:43.954Z,1009.54
2019-06-07T11:17:43.941Z,1009.60
2019-06-07T11:18:43.922Z,1009.60
2019-06-07T11:19:43.916Z,1009.57
2019-06-07T11:20:43.904Z,1009.56
2019-06-07T11:21:43.885Z,1009.58
2019-06-07T11:22:43.883Z,1009.49
2019-06-07T11:23:43.868Z,1009.54
2019-06-07T11:24:44.604Z,1009.50
2019-06-07T11:25:43.843Z,1009.48
2019-06-07T11:26:43.831Z,1009.45
2019-06-07T11:27:43.884Z,1009.43
2019-06-07T11:28:43.816Z,1009.49
2019-06-07T11:29:43.797Z,1009.52
2019-06-07T11:30:43.791Z,1009.44
2019-06-07T11:31:47.278Z,1009.51
2019-06-07T11:32:43.809Z,1009.43
2019-06-07T11:33:43.795Z,1009.41
2019-06-07T11:34:43.744Z,1009.42
2019-06-07T11:35:43.735Z,1009.42
2019-06-07T11:36:43.722Z,1009.41
2019-06-07T11:37:43.711Z,1009.37
2019-06-07T11:38:43.715Z,1009.35
2019-06-07T11:39:43.696Z,1009.36
2019-06-07T11:40:43.681Z,1009.30
2019-06-07T11:41:43.668Z,1009.32
2019-06-07T11:42:43.660Z,1009.38
2019-06-07T11:43:43.654Z,1009.38
2019-06-07T11:44:56.181Z,1009.30
2019-06-07T11:45:44.626Z,1009.33
2019-06-07T11:46:43.616Z,1009.35
2019-06-07T11:47:43.605Z,1009.39
2019-06-07T11:48:43.602Z,1009.28
2019-06-07T11:49:43.582Z,1009.29
2019-06-07T11:50:43.571Z,1009.25
2019-06-07T11:51:43.572Z,1009.26
2019-06-07T11:52:46.326Z,1009.26
2019-06-07T11:53:43.548Z,1009.30
2019-06-07T11:54:43.528Z,1009.20
2019-06-07T11:55:43.520Z,1009.24
2019-06-07T11:56:43.507Z,1009.25
2019-06-07T11:57:43.500Z,1009.20
2019-06-07T11:58:43.495Z,1009.16
2019-06-07T11:59:43.480Z,1009.20
2019-06-07T12:00:43.488Z,1009.18
2019-06-07T12:01:43.455Z,1009.16
2019-06-07T12:02:43.449Z,1009.12
2019-06-07T12:03:43.484Z,1009.06
2019-06-07T12:04:43.422Z,1009.06
2019-06-07T12:05:43.413Z,1009.04
2019-06-07T12:06:43.402Z,1009.06
2019-06-07T12:07:43.389Z,1009.03
2019-06-07T12:08:43.387Z,1009.10
2019-06-07T12:09:56.029Z,1009.09
2019-06-07T12:10:44.360Z,1009.11
2019-06-07T12:11:43.347Z,1009.09
2019-06-07T12:12:43.358Z,1009.07
2019-06-07T12:13:43.338Z,1009.15
2019-06-07T12:14:43.320Z,1009.16
2019-06-07T12:15:43.307Z,1009.09